Terminal Aerodrome Forecast
Issued by NWS

Home | Current Version | Previous Version | Text Only | Print | Product List | Glossary On
Versions: 1 2 3 4 5 6 7 8 9 10 11 12 13 14 15 16 17 18
000
FTUS44 KJAN 181241 RRA
TAFHKS
TAF
KHKS 181241Z 1813/1912 VRB03KT P6SM SCT060 BKN080
     FM181800 30006KT P6SM VCTS SCT050CB
     FM190000 00000KT P6SM SKC=

USA.gov is the U.S. government's official web portal to all federal, state and local government web resources and services.